Terminal Aerodrome Forecast
Issued by NWS Sioux Falls, SD

Home | Current Version | Previous Version | Graphics & Text | Print | Product List | Glossary Off
Versions: 1 2 3 4 5 6 7 8 9 10 11 12 13 14 15 16 17 18 19 20 21 22 23 24

210
FTUS43 KFSD 131729
TAFFSD
TAF
KFSD 131729Z 1318/1418 15012G18KT P6SM OVC040
     FM132200 15016G25KT P6SM OVC030
      TEMPO 1323/1401 2SM -SN
     FM140200 15018G27KT 2SM -SN OVC025
     FM140500 16019G28KT 3SM -SN BLSN OVC035
     FM140900 16016G25KT 3/4SM -SN BLSN OVC015
     FM141200 15012G18KT 2SM -SN OVC015
     FM141400 15008KT 5SM -SN OVC015=

USA.gov is the U.S. government's official web portal to all federal, state and local government web resources and services.